This is the latest recevied weather packets stored in our database for station/object KG2V. If no packets are shown the sender has not sent any weather packets the latest 10 day(s).
| Time | Temp. | Humidity | Pressure | Rain* | Wind** | Luminosity | Snow |
|---|---|---|---|---|---|---|---|
| 1777421772 | 14.44° C | 77% | 1008.2 hPa | 0 mm | - | 1 W/m² | - |
| 1777419043 | 16.11° C | 73% | 1008.4 hPa | 0 mm | - | 23 W/m² | - |
| 1777412060 | 16.67° C | 71% | 1008.6 hPa | 0 mm | - | 52 W/m² | - |
| 1777411450 | 16.67° C | 70% | 1008.4 hPa | 0 mm | - | 57 W/m² | - |
| 1777408107 | 17.22° C | 67% | 1008.5 hPa | 0 mm | - | 70 W/m² | - |
| 1777406889 | 17.78° C | 65% | 1008.2 hPa | 0 mm | - | 134 W/m² | - |
| 1777406584 | 18.33° C | 65% | 1008.3 hPa | 0 mm | - | 173 W/m² | - |
| 1777405979 | 18.89° C | 62% | 1008.1 hPa | 0 mm | - | 280 W/m² | - |
| 1777405068 | 18.89° C | 64% | 1008.1 hPa | 0 mm | - | 255 W/m² | - |
| 1777404763 | 18.89° C | 62% | 1008.5 hPa | 0 mm | - | 543 W/m² | - |
| 1777404156 | 18.89° C | 62% | 1008.4 hPa | 0 mm | - | 732 W/m² | - |
| 1777403546 | 18.33° C | 63% | 1008.5 hPa | 0 mm | - | 264 W/m² | - |
| 1777402941 | 18.33° C | 64% | 1008.7 hPa | 0 mm | - | 269 W/m² | - |
| 1777402637 | 17.78° C | 65% | 1008.6 hPa | 0 mm | - | 790 W/m² | - |
| 1777401430 | 18.33° C | 64% | 1008.6 hPa | 0 mm | - | 662 W/m² | - |
| 1777401129 | 18.33° C | 63% | 1008.7 hPa | 0 mm | - | 654 W/m² | - |
| 1777400518 | 16.67° C | 69% | 1008.5 hPa | 0 mm | - | 784 W/m² | - |
| 1777400215 | 17.22° C | 67% | 1008.5 hPa | 0 mm | - | 183 W/m² | - |
| 1777397791 | 17.78° C | 60% | 1008.4 hPa | 0 mm | - | 488 W/m² | - |
| 1777397486 | 18.33° C | 61% | 1008.5 hPa | 0 mm | - | 796 W/m² | - |
| 1777396880 | 16.67° C | 64% | 1008.5 hPa | 0 mm | - | 490 W/m² | - |
| 1777396575 | 16.11° C | 66% | 1008.8 hPa | 0 mm | - | 283 W/m² | - |
| 1777396273 | 15.56° C | 66% | 1008.7 hPa | 0 mm | - | 230 W/m² | - |
| 1777395969 | 15.56° C | 67% | 1008.9 hPa | 0 mm | - | 222 W/m² | - |
| 1777395664 | 15° C | 66% | 1008.6 hPa | 0 mm | - | 152 W/m² | - |
* Rain latest hour (hover to see other rain measurements)
** Current wind speed in m/s (hover to see current wind gust speed)